Time;durP1;ratioP1;P1;durP2;ratioP2;P2;SDS_P1;SDS_P2;PMS_P1;PMS_P2;Temp;Humidity;BMP_temperature;BMP_pressure;BME280_temperature;BME280_humidity;BME280_pressure;Samples;Min_cycle;Max_cycle;Signal;HPM_P1;HPM_P2
2021/03/31 00:00:21;;;;;;;28.63;17.13;;;8.10;99.90;;;;;;5047087;28;20465;-71
2021/03/31 00:02:48;;;;;;;20.80;18.93;;;8.20;99.90;;;;;;5047684;28;20528;-70
2021/03/31 00:05:16;;;;;;;18.70;16.77;;;8.40;99.90;;;;;;5051627;28;20469;-69
2021/03/31 00:07:42;;;;;;;19.20;17.37;;;8.40;99.90;;;;;;5040105;28;20462;-69
2021/03/31 00:10:14;;;;;;;23.43;17.93;;;8.40;99.90;;;;;;5057830;28;20471;-69
2021/03/31 00:12:41;;;;;;;17.93;16.20;;;8.30;99.90;;;;;;5051695;28;20489;-70
2021/03/31 00:15:08;;;;;;;17.83;16.03;;;8.30;99.90;;;;;;5046620;28;20474;-70
2021/03/31 00:17:36;;;;;;;18.00;16.60;;;8.20;99.90;;;;;;5055356;28;20490;-71
2021/03/31 00:20:03;;;;;;;17.93;16.10;;;8.10;99.90;;;;;;5049954;28;20469;-70
2021/03/31 00:22:30;;;;;;;26.20;17.23;;;8.00;99.90;;;;;;5048905;28;20465;-70
2021/03/31 00:24:57;;;;;;;17.87;16.20;;;7.90;99.90;;;;;;5051676;28;20482;-70
2021/03/31 00:27:23;;;;;;;18.80;17.07;;;7.90;99.90;;;;;;5052697;28;20473;-69
2021/03/31 00:29:49;;;;;;;25.13;17.63;;;7.80;99.90;;;;;;5057295;28;20964;-70
2021/03/31 00:32:15;;;;;;;23.87;17.30;;;7.70;99.90;;;;;;5059350;28;20466;-72
2021/03/31 00:34:42;;;;;;;23.47;17.27;;;7.70;99.90;;;;;;5058156;28;20845;-71
2021/03/31 00:37:09;;;;;;;23.57;17.00;;;7.70;99.90;;;;;;5058711;28;20498;-71
2021/03/31 00:39:36;;;;;;;33.53;18.47;;;7.60;99.90;;;;;;5053391;28;20507;-72
2021/03/31 00:42:03;;;;;;;18.60;16.83;;;7.50;99.90;;;;;;5055934;28;20982;-71
2021/03/31 00:44:29;;;;;;;26.23;17.77;;;7.50;99.90;;;;;;5055858;28;20470;-71
2021/03/31 00:46:55;;;;;;;18.23;16.53;;;7.40;99.90;;;;;;5055738;28;20458;-71
2021/03/31 00:49:22;;;;;;;29.63;18.13;;;7.40;99.90;;;;;;5055540;28;20473;-71
2021/03/31 00:51:49;;;;;;;19.93;18.33;;;7.40;99.90;;;;;;5045819;28;20467;-71
2021/03/31 00:54:15;;;;;;;25.30;18.63;;;7.40;99.90;;;;;;5048457;28;20466;-71
2021/03/31 00:56:43;;;;;;;19.30;17.50;;;7.50;99.90;;;;;;5056541;28;20517;-71
2021/03/31 00:59:09;;;;;;;20.40;17.60;;;7.50;99.90;;;;;;5053712;28;20888;-71
2021/03/31 01:01:36;;;;;;;19.00;17.40;;;7.50;99.90;;;;;;5052547;28;20480;-71
2021/03/31 01:04:04;;;;;;;30.77;17.93;;;7.40;99.90;;;;;;5054744;28;20471;-71
2021/03/31 01:06:30;;;;;;;23.00;20.60;;;7.40;99.90;;;;;;5050319;28;20472;-71
2021/03/31 01:08:57;;;;;;;20.60;18.57;;;7.30;99.90;;;;;;5055258;28;20489;-71
2021/03/31 01:11:31;;;;;;;19.30;17.60;;;7.40;99.90;;;;;;5054940;28;20489;-72
2021/03/31 01:14:04;;;;;;;20.67;18.63;;;7.40;99.90;;;;;;5055225;28;20476;-71
2021/03/31 01:16:41;;;;;;;22.00;17.40;;;7.50;99.90;;;;;;5048363;28;20507;-72
2021/03/31 01:19:28;;;;;;;22.10;20.20;;;7.70;99.90;;;;;;5055094;28;20831;-72
2021/03/31 01:22:26;;;;;;;20.23;18.23;;;7.80;99.90;;;;;;5052210;28;20497;-71
2021/03/31 01:25:14;;;;;;;19.40;17.37;;;7.90;99.90;;;;;;5029686;28;20600;-72
2021/03/31 01:28:10;;;;;;;20.60;16.70;;;7.70;99.90;;;;;;5054153;28;20505;-72
2021/03/31 01:30:53;;;;;;;20.63;17.03;;;7.60;99.90;;;;;;5053190;28;20942;-71
2021/03/31 01:34:09;;;;;;;24.17;17.20;;;7.40;99.90;;;;;;5049628;28;20888;-72
2021/03/31 01:36:37;;;;;;;21.03;18.10;;;7.30;99.90;;;;;;4983097;28;20520;-71
2021/03/31 01:39:08;;;;;;;26.00;18.50;;;7.30;99.90;;;;;;4984392;28;20468;-72
2021/03/31 01:41:36;;;;;;;38.37;21.30;;;7.40;99.90;;;;;;5024015;28;20712;-72
2021/03/31 01:44:08;;;;;;;23.53;18.80;;;7.40;99.90;;;;;;5052027;28;21024;-71
2021/03/31 01:46:37;;;;;;;23.43;18.00;;;7.50;99.90;;;;;;5056308;28;20466;-71
2021/03/31 01:49:05;;;;;;;19.77;18.00;;;7.50;99.90;;;;;;5051861;28;20465;-71
2021/03/31 01:51:33;;;;;;;20.27;17.83;;;7.50;99.90;;;;;;5055030;28;20478;-72
2021/03/31 01:54:01;;;;;;;24.30;18.53;;;7.50;99.90;;;;;;5051751;28;20466;-72
2021/03/31 01:56:29;;;;;;;18.93;17.33;;;7.50;99.90;;;;;;5050750;28;21029;-72
2021/03/31 01:58:57;;;;;;;23.80;18.47;;;7.40;99.90;;;;;;5051346;28;20467;-71
2021/03/31 02:01:26;;;;;;;19.23;17.13;;;7.40;99.90;;;;;;5056030;28;20994;-71
2021/03/31 02:03:55;;;;;;;21.97;16.80;;;7.30;99.90;;;;;;5056038;28;20470;-71
2021/03/31 02:06:23;;;;;;;19.57;17.50;;;7.30;99.90;;;;;;5054201;28;20833;-70
2021/03/31 02:08:50;;;;;;;18.90;17.10;;;7.20;99.90;;;;;;5047008;28;20461;-71
2021/03/31 02:11:17;;;;;;;19.47;17.50;;;7.10;99.90;;;;;;5050451;28;20492;-71
2021/03/31 02:13:47;;;;;;;20.17;18.07;;;7.10;99.90;;;;;;5052961;28;20459;-71
2021/03/31 02:16:14;;;;;;;31.83;19.23;;;7.10;99.90;;;;;;5049128;28;20458;-71
2021/03/31 02:18:42;;;;;;;21.27;19.03;;;7.20;99.90;;;;;;5053699;28;20534;-71
2021/03/31 02:21:08;;;;;;;21.80;18.10;;;7.30;99.90;;;;;;5053904;28;20467;-70
2021/03/31 02:23:37;;;;;;;19.27;17.47;;;7.40;99.90;;;;;;5050471;28;20507;-70
2021/03/31 02:26:04;;;;;;;20.93;17.00;;;7.40;99.90;;;;;;5051787;28;20458;-71
2021/03/31 02:28:32;;;;;;;33.67;18.33;;;7.30;99.90;;;;;;5048053;28;20464;-70
2021/03/31 02:30:58;;;;;;;23.17;17.87;;;7.10;99.90;;;;;;5050182;28;20456;-71
2021/03/31 02:33:26;;;;;;;19.77;17.73;;;7.00;99.90;;;;;;5051792;28;20458;-71
2021/03/31 02:35:53;;;;;;;28.00;17.60;;;6.90;99.90;;;;;;5046188;28;20470;-72
2021/03/31 02:38:20;;;;;;;21.43;16.60;;;6.80;99.90;;;;;;5050245;28;20495;-70
2021/03/31 02:40:48;;;;;;;19.27;17.57;;;6.80;99.90;;;;;;5053089;28;20460;-71
2021/03/31 02:43:17;;;;;;;22.27;17.60;;;6.80;99.90;;;;;;5050933;28;20471;-70
2021/03/31 02:45:48;;;;;;;19.27;17.27;;;6.70;99.90;;;;;;5049980;28;20873;-71
2021/03/31 02:48:17;;;;;;;28.30;17.80;;;6.70;99.90;;;;;;5054053;28;20678;-71
2021/03/31 02:50:46;;;;;;;24.03;17.57;;;6.60;99.90;;;;;;5046367;28;20770;-71
2021/03/31 02:53:14;;;;;;;19.90;18.00;;;6.60;99.90;;;;;;5053418;28;20471;-71
2021/03/31 02:55:40;;;;;;;20.17;17.03;;;6.70;99.90;;;;;;5056216;28;20466;-70
2021/03/31 02:58:08;;;;;;;21.10;17.90;;;6.70;99.90;;;;;;5055870;28;20936;-71
2021/03/31 03:00:35;;;;;;;19.10;17.50;;;6.70;99.90;;;;;;5049440;28;20516;-71
2021/03/31 03:03:04;;;;;;;18.70;16.87;;;6.70;99.90;;;;;;5049691;28;20465;-71
2021/03/31 03:05:31;;;;;;;23.30;18.00;;;6.50;99.90;;;;;;5054640;28;20477;-71
2021/03/31 03:07:58;;;;;;;21.60;18.80;;;6.40;99.90;;;;;;5049322;28;20462;-71
2021/03/31 03:10:24;;;;;;;20.80;19.00;;;6.30;99.90;;;;;;5054793;28;20460;-71
2021/03/31 03:12:54;;;;;;;21.37;17.80;;;6.20;99.90;;;;;;5045096;28;20467;-70
2021/03/31 03:15:23;;;;;;;19.73;17.93;;;6.10;99.90;;;;;;5053206;28;20463;-70
2021/03/31 03:17:49;;;;;;;22.03;18.70;;;6.10;99.90;;;;;;5051055;28;20491;-71
2021/03/31 03:20:18;;;;;;;20.23;18.50;;;6.00;99.90;;;;;;5051231;28;20473;-72
2021/03/31 03:22:47;;;;;;;20.30;18.40;;;5.90;99.90;;;;;;5046567;28;20846;-70
2021/03/31 03:25:16;;;;;;;23.30;19.50;;;5.80;99.90;;;;;;5052971;28;21088;-71
2021/03/31 03:27:43;;;;;;;21.30;18.50;;;5.80;99.90;;;;;;5051738;28;20468;-71
2021/03/31 03:30:12;;;;;;;22.00;18.80;;;5.80;99.90;;;;;;5054485;28;20468;-71
2021/03/31 03:32:40;;;;;;;20.77;18.97;;;5.70;99.90;;;;;;5053646;28;20487;-71
2021/03/31 03:35:09;;;;;;;37.53;21.47;;;5.70;99.90;;;;;;5052113;28;20501;-71
2021/03/31 03:37:38;;;;;;;27.90;18.90;;;5.70;99.90;;;;;;5051253;28;20497;-70
2021/03/31 03:40:06;;;;;;;21.33;19.10;;;5.80;99.90;;;;;;5051199;28;20462;-72
2021/03/31 03:42:32;;;;;;;20.67;19.13;;;5.80;99.90;;;;;;5054418;28;20846;-71
2021/03/31 03:45:02;;;;;;;23.60;18.50;;;5.90;99.90;;;;;;5052215;28;20463;-71
2021/03/31 03:47:29;;;;;;;19.67;18.27;;;5.90;99.90;;;;;;5046871;28;20490;-72
2021/03/31 03:49:55;;;;;;;21.23;18.97;;;5.80;99.90;;;;;;5049652;28;20468;-72
2021/03/31 03:52:22;;;;;;;21.50;19.63;;;5.70;99.90;;;;;;5051537;28;20463;-71
2021/03/31 03:54:54;;;;;;;20.77;19.13;;;5.60;99.90;;;;;;5049221;28;20513;-71
2021/03/31 03:57:25;;;;;;;23.17;21.00;;;5.60;99.90;;;;;;5049283;28;20519;-71
2021/03/31 03:59:52;;;;;;;22.47;20.30;;;5.60;99.90;;;;;;5048477;28;20569;-71
2021/03/31 04:02:19;;;;;;;21.13;19.23;;;5.60;99.90;;;;;;5050495;28;20490;-72
2021/03/31 04:04:46;;;;;;;21.17;19.33;;;5.70;99.90;;;;;;5053501;28;20478;-71
2021/03/31 04:07:12;;;;;;;27.87;20.13;;;5.70;99.90;;;;;;5051386;28;20961;-71
2021/03/31 04:09:41;;;;;;;21.37;19.57;;;5.60;99.90;;;;;;5054986;28;20468;-71
2021/03/31 04:12:10;;;;;;;22.87;20.50;;;5.60;99.90;;;;;;5058792;28;20476;-71
2021/03/31 04:14:39;;;;;;;22.53;20.07;;;5.50;99.90;;;;;;5055471;28;20804;-71
2021/03/31 04:17:07;;;;;;;25.90;21.10;;;5.50;99.90;;;;;;5060839;28;20486;-71
2021/03/31 04:19:36;;;;;;;20.50;18.70;;;5.60;99.90;;;;;;5056051;28;20997;-72
2021/03/31 04:22:03;;;;;;;21.30;19.60;;;5.60;99.90;;;;;;5056659;28;20471;-71
2021/03/31 04:24:29;;;;;;;19.80;18.20;;;5.60;99.90;;;;;;5053680;28;20478;-71
2021/03/31 04:26:57;;;;;;;21.33;19.40;;;5.50;99.90;;;;;;5054274;28;20493;-71
2021/03/31 04:29:25;;;;;;;21.03;18.87;;;5.40;99.90;;;;;;5056948;28;20517;-72
2021/03/31 04:31:51;;;;;;;24.13;20.90;;;5.20;99.90;;;;;;5056818;28;20526;-72
2021/03/31 04:34:18;;;;;;;25.10;20.10;;;5.10;99.90;;;;;;5052933;28;20517;-71
2021/03/31 04:36:45;;;;;;;22.57;20.40;;;5.10;99.90;;;;;;5054267;28;20491;-71
2021/03/31 04:39:11;;;;;;;20.83;18.93;;;5.20;99.90;;;;;;5062844;28;20481;-71
2021/03/31 04:41:38;;;;;;;22.17;19.47;;;5.20;99.90;;;;;;5057729;28;20520;-72
2021/03/31 04:44:05;;;;;;;22.03;20.13;;;5.20;99.90;;;;;;5056512;28;20467;-72
2021/03/31 04:46:32;;;;;;;25.40;19.00;;;5.20;99.90;;;;;;5054994;28;20523;-72
2021/03/31 04:48:59;;;;;;;22.23;19.23;;;5.20;99.90;;;;;;5055516;28;20470;-71
2021/03/31 04:51:25;;;;;;;21.20;19.60;;;5.20;99.90;;;;;;5053900;28;20470;-71
2021/03/31 04:53:52;;;;;;;22.13;19.90;;;5.30;99.90;;;;;;5055042;28;20460;-71
2021/03/31 04:56:18;;;;;;;22.93;20.73;;;5.20;99.90;;;;;;5056069;28;20834;-71
2021/03/31 04:58:44;;;;;;;22.20;20.40;;;5.10;99.90;;;;;;5052513;28;20466;-71
2021/03/31 05:01:11;;;;;;;22.07;19.70;;;5.00;99.90;;;;;;5056749;28;20467;-71
2021/03/31 05:03:38;;;;;;;21.37;19.67;;;4.90;99.90;;;;;;5054746;28;20466;-71
2021/03/31 05:06:05;;;;;;;21.80;19.77;;;4.90;99.90;;;;;;5054086;28;20460;-71
2021/03/31 05:08:32;;;;;;;24.37;20.70;;;4.90;99.90;;;;;;5052951;28;20492;-72
2021/03/31 05:10:58;;;;;;;21.50;19.57;;;5.00;99.90;;;;;;5058293;28;20482;-71
2021/03/31 05:13:24;;;;;;;22.50;20.57;;;5.00;99.90;;;;;;5051871;28;20475;-71
2021/03/31 05:15:51;;;;;;;22.17;20.33;;;5.00;99.90;;;;;;5054905;28;20455;-71
2021/03/31 05:18:17;;;;;;;23.03;20.60;;;4.90;99.90;;;;;;5055296;28;20533;-71
2021/03/31 05:20:44;;;;;;;23.33;21.53;;;4.80;99.90;;;;;;5055462;28;20975;-71
2021/03/31 05:23:10;;;;;;;23.40;20.87;;;4.90;99.90;;;;;;5056098;28;20471;-71
2021/03/31 05:25:39;;;;;;;22.67;20.37;;;4.90;99.90;;;;;;5052780;28;20488;-72
2021/03/31 05:28:06;;;;;;;23.87;21.53;;;4.90;99.90;;;;;;5056355;28;20464;-72
2021/03/31 05:30:32;;;;;;;32.53;21.77;;;4.90;99.90;;;;;;5055493;28;20596;-71
2021/03/31 05:32:59;;;;;;;24.07;21.63;;;5.00;99.90;;;;;;5052972;28;20698;-71
2021/03/31 05:35:25;;;;;;;22.17;20.20;;;5.00;99.90;;;;;;5048216;28;20517;-72
2021/03/31 05:37:53;;;;;;;22.63;20.70;;;5.00;99.90;;;;;;5054629;28;20488;-72
2021/03/31 05:40:19;;;;;;;22.53;20.83;;;5.10;99.90;;;;;;5054397;28;20465;-72
2021/03/31 05:42:46;;;;;;;33.00;21.27;;;5.10;99.90;;;;;;5054997;28;20468;-72
2021/03/31 05:45:13;;;;;;;23.33;21.57;;;5.10;99.90;;;;;;5047562;28;20459;-72
2021/03/31 05:47:44;;;;;;;22.60;20.30;;;5.10;99.90;;;;;;5052761;28;20783;-72
2021/03/31 05:50:12;;;;;;;22.53;20.53;;;5.00;99.90;;;;;;5046612;28;20994;-69
2021/03/31 05:52:39;;;;;;;33.13;22.23;;;5.00;99.90;;;;;;5054725;28;20463;-70
2021/03/31 05:55:08;;;;;;;23.80;21.30;;;5.20;99.90;;;;;;5055090;28;20798;-71
2021/03/31 05:57:36;;;;;;;29.63;22.90;;;5.30;99.90;;;;;;5047960;28;20835;-70
2021/03/31 06:00:05;;;;;;;24.53;20.50;;;5.40;99.90;;;;;;5052066;28;20522;-70
2021/03/31 06:02:32;;;;;;;23.60;21.40;;;5.40;99.90;;;;;;5059210;28;20512;-70
2021/03/31 06:04:59;;;;;;;26.00;23.60;;;5.50;99.90;;;;;;5053884;28;20463;-69
2021/03/31 06:07:25;;;;;;;27.80;24.90;;;5.50;99.90;;;;;;5056289;28;20467;-72
2021/03/31 06:10:09;;;;;;;25.33;22.70;;;5.60;99.90;;;;;;5053820;28;21061;-69
2021/03/31 06:12:36;;;;;;;31.50;22.30;;;5.70;99.90;;;;;;5050489;28;20490;-69
2021/03/31 06:15:20;;;;;;;39.63;22.80;;;5.80;99.90;;;;;;5046880;28;20547;-71
2021/03/31 06:17:53;;;;;;;25.30;22.97;;;6.00;99.90;;;;;;5048432;28;20495;-71
2021/03/31 06:20:36;;;;;;;26.00;23.40;;;6.20;99.90;;;;;;5052909;28;20465;-69
2021/03/31 06:23:11;;;;;;;27.90;22.30;;;6.30;99.90;;;;;;5050327;28;20455;-70
2021/03/31 06:25:48;;;;;;;25.40;22.83;;;6.40;99.90;;;;;;5049771;28;20573;-72
2021/03/31 06:28:31;;;;;;;23.37;21.27;;;6.50;99.90;;;;;;5056417;28;20554;-70
2021/03/31 06:31:11;;;;;;;28.10;21.63;;;6.60;99.90;;;;;;5058708;28;20546;-69
2021/03/31 06:33:39;;;;;;;30.83;22.93;;;6.80;99.90;;;;;;5050558;28;20469;-70
2021/03/31 06:36:07;;;;;;;25.20;21.50;;;7.10;99.90;;;;;;5050340;28;20997;-70
2021/03/31 06:38:35;;;;;;;27.53;24.60;;;7.30;99.90;;;;;;5051885;28;20629;-70
2021/03/31 06:41:13;;;;;;;33.03;23.20;;;7.60;99.90;;;;;;5059193;28;20468;-71
2021/03/31 06:43:48;;;;;;;28.13;22.73;;;7.90;99.90;;;;;;5055487;28;20556;-71
2021/03/31 06:46:30;;;;;;;34.10;22.73;;;8.20;99.90;;;;;;5051453;28;20458;-71
2021/03/31 06:48:56;;;;;;;23.70;21.40;;;8.50;99.90;;;;;;5054161;28;20968;-71
2021/03/31 06:51:29;;;;;;;32.30;22.00;;;8.80;99.90;;;;;;5049973;28;20467;-71
2021/03/31 06:53:55;;;;;;;26.47;21.23;;;9.10;99.90;;;;;;5053440;28;20882;-70
2021/03/31 06:56:30;;;;;;;24.40;21.97;;;9.50;99.90;;;;;;5053576;28;20455;-71
2021/03/31 06:58:58;;;;;;;31.10;20.53;;;9.80;99.90;;;;;;5048603;28;20958;-71
2021/03/31 07:01:26;;;;;;;32.50;21.80;;;10.00;99.90;;;;;;5046715;28;20503;-70
2021/03/31 07:03:54;;;;;;;25.47;21.20;;;10.30;99.90;;;;;;5053950;28;20988;-71
2021/03/31 07:06:20;;;;;;;27.83;20.53;;;10.60;99.90;;;;;;5050288;28;20479;-71
2021/03/31 07:08:47;;;;;;;28.80;19.93;;;10.80;99.90;;;;;;5049095;28;20541;-71
2021/03/31 07:11:40;;;;;;;23.50;21.30;;;11.10;99.90;;;;;;5063061;28;20560;-70
2021/03/31 07:14:09;;;;;;;25.63;19.90;;;11.30;99.90;;;;;;5049942;28;20558;-71
2021/03/31 07:16:36;;;;;;;22.47;20.03;;;11.50;99.90;;;;;;5050788;28;20494;-71
2021/03/31 07:19:03;;;;;;;29.60;20.93;;;11.70;99.90;;;;;;5049889;28;20462;-71
2021/03/31 07:21:31;;;;;;;22.47;20.30;;;12.00;99.90;;;;;;5055220;28;20532;-71
2021/03/31 07:23:58;;;;;;;22.93;20.47;;;12.20;99.90;;;;;;5051073;28;20989;-71
2021/03/31 07:26:25;;;;;;;26.37;19.97;;;12.40;99.90;;;;;;5050304;28;21005;-71
2021/03/31 07:28:53;;;;;;;21.70;19.60;;;12.50;99.90;;;;;;5055622;28;20463;-71
2021/03/31 07:31:25;;;;;;;23.50;21.27;;;12.70;99.90;;;;;;5062390;28;20518;-70
2021/03/31 07:34:13;;;;;;;28.73;21.20;;;12.80;99.90;;;;;;5054312;28;20459;-70
2021/03/31 07:36:43;;;;;;;23.70;19.67;;;13.00;99.90;;;;;;5059159;28;20514;-71
2021/03/31 07:39:10;;;;;;;22.87;20.47;;;13.20;99.90;;;;;;5055189;28;20466;-71
2021/03/31 07:41:38;;;;;;;31.77;21.20;;;13.30;99.90;;;;;;5050321;28;20950;-70
2021/03/31 07:44:09;;;;;;;26.27;20.17;;;13.40;99.90;;;;;;5046861;28;20479;-70
2021/03/31 07:46:39;;;;;;;30.83;20.33;;;13.50;99.90;;;;;;5050315;28;20458;-70
2021/03/31 07:49:07;;;;;;;31.50;20.23;;;13.70;99.90;;;;;;5045563;28;20468;-71
2021/03/31 07:51:34;;;;;;;28.13;19.50;;;13.80;99.90;;;;;;5049534;28;20508;-70
2021/03/31 07:54:02;;;;;;;31.60;20.00;;;13.90;99.90;;;;;;5040664;28;20467;-70
2021/03/31 07:56:36;;;;;;;23.00;20.17;;;14.00;99.90;;;;;;5045116;28;20462;-71
2021/03/31 07:59:15;;;;;;;22.30;19.90;;;14.00;99.90;;;;;;5041670;28;20562;-70
2021/03/31 08:01:45;;;;;;;21.20;19.37;;;14.20;99.90;;;;;;5040648;28;20469;-71
2021/03/31 08:04:12;;;;;;;35.90;20.80;;;14.30;99.90;;;;;;5029956;28;21287;-71
2021/03/31 08:06:39;;;;;;;32.20;20.83;;;14.50;99.90;;;;;;5046731;28;20502;-70
2021/03/31 08:09:08;;;;;;;29.73;20.83;;;14.80;99.90;;;;;;5038902;28;21314;-71
2021/03/31 08:12:02;;;;;;;28.73;20.00;;;14.90;99.90;;;;;;5042615;28;20487;-71
2021/03/31 08:14:38;;;;;;;37.60;19.70;;;15.20;99.90;;;;;;5048936;28;20515;-72
2021/03/31 08:17:06;;;;;;;22.33;20.00;;;15.40;99.90;;;;;;5051219;28;20494;-72
2021/03/31 08:19:34;;;;;;;22.33;19.57;;;15.50;99.90;;;;;;5058639;28;20926;-71
2021/03/31 08:22:20;;;;;;;35.40;20.80;;;15.60;99.90;;;;;;5057765;28;20503;-72
2021/03/31 08:24:51;;;;;;;24.50;18.93;;;15.70;99.90;;;;;;5061320;28;20841;-71
2021/03/31 08:27:18;;;;;;;25.90;19.67;;;15.80;99.90;;;;;;5059083;28;20831;-71
2021/03/31 08:29:54;;;;;;;35.07;20.60;;;15.90;99.90;;;;;;5050202;28;20508;-71
2021/03/31 08:32:22;;;;;;;25.20;19.43;;;16.00;99.90;;;;;;5056338;28;20470;-71
2021/03/31 08:34:49;;;;;;;34.87;19.97;;;16.10;99.90;;;;;;5055989;28;20467;-71
2021/03/31 08:37:37;;;;;;;32.80;21.00;;;16.20;99.90;;;;;;5047711;28;20492;-72
2021/03/31 08:40:06;;;;;;;30.00;20.70;;;16.40;99.90;;;;;;5046047;28;20463;-72
2021/03/31 08:42:33;;;;;;;23.90;20.50;;;16.40;99.90;;;;;;5046310;28;20520;-72
2021/03/31 08:45:03;;;;;;;22.93;19.63;;;16.60;99.90;;;;;;5046202;28;20463;-72
2021/03/31 08:47:31;;;;;;;24.10;19.70;;;16.80;99.90;;;;;;5047587;28;20463;-71
2021/03/31 08:50:00;;;;;;;23.70;20.60;;;16.90;99.90;;;;;;5048860;28;20562;-72
2021/03/31 08:52:33;;;;;;;21.73;19.37;;;17.10;99.90;;;;;;5052318;28;20458;-72
2021/03/31 08:55:03;;;;;;;21.73;19.83;;;17.30;99.90;;;;;;5056060;28;20466;-72
2021/03/31 08:57:30;;;;;;;30.43;20.37;;;17.50;99.20;;;;;;5058470;28;21373;-71
2021/03/31 08:59:58;;;;;;;33.87;20.40;;;17.70;99.90;;;;;;5058761;28;20467;-72
2021/03/31 09:02:27;;;;;;;26.30;20.20;;;17.90;98.90;;;;;;5061549;28;20477;-72
2021/03/31 09:04:55;;;;;;;22.53;19.60;;;17.90;98.50;;;;;;5055624;28;21157;-71
2021/03/31 09:07:22;;;;;;;25.73;20.10;;;18.00;98.80;;;;;;5058845;28;20470;-72
2021/03/31 09:09:49;;;;;;;35.60;20.57;;;18.20;99.20;;;;;;5061147;28;20459;-72
2021/03/31 09:12:17;;;;;;;30.37;21.07;;;18.40;99.30;;;;;;5059615;28;20487;-72
2021/03/31 09:14:45;;;;;;;28.73;19.20;;;18.60;98.40;;;;;;5055123;28;20471;-72
2021/03/31 09:17:16;;;;;;;24.63;20.00;;;18.70;98.00;;;;;;5057801;28;20996;-72
2021/03/31 09:19:45;;;;;;;29.10;20.50;;;18.80;97.70;;;;;;5059417;28;20857;-71
2021/03/31 09:22:13;;;;;;;44.73;20.97;;;18.80;97.50;;;;;;5057838;28;20912;-71
2021/03/31 09:24:41;;;;;;;36.67;22.17;;;19.10;98.10;;;;;;5053954;28;20483;-72
2021/03/31 09:27:10;;;;;;;32.10;20.90;;;19.70;98.80;;;;;;5022055;28;21040;-72
2021/03/31 09:29:40;;;;;;;41.60;20.23;;;20.60;96.30;;;;;;5051731;28;20464;-72
2021/03/31 09:32:08;;;;;;;23.50;18.37;;;21.70;95.10;;;;;;5059449;28;20479;-71
2021/03/31 09:34:35;;;;;;;29.53;19.10;;;23.20;94.10;;;;;;5053535;28;20475;-72
2021/03/31 09:37:06;;;;;;;39.03;20.33;;;24.30;91.30;;;;;;5050786;28;20677;-72
2021/03/31 09:39:44;;;;;;;36.87;20.17;;;24.80;89.00;;;;;;5043434;28;21145;-72
2021/03/31 09:42:16;;;;;;;27.67;19.50;;;25.20;83.20;;;;;;5054680;28;21091;-72
2021/03/31 09:44:42;;;;;;;24.90;19.63;;;25.90;82.10;;;;;;5042127;28;20806;-72
2021/03/31 09:47:10;;;;;;;25.20;19.57;;;26.10;77.40;;;;;;5029289;28;20470;-72
2021/03/31 09:49:37;;;;;;;27.43;19.30;;;26.00;72.80;;;;;;5050076;28;20561;-72
2021/03/31 09:52:05;;;;;;;25.10;19.43;;;26.60;71.20;;;;;;5049383;28;20483;-72
2021/03/31 09:54:33;;;;;;;25.73;19.17;;;27.30;65.40;;;;;;5061370;28;20478;-71
2021/03/31 09:57:00;;;;;;;22.50;20.13;;;27.50;63.90;;;;;;5055742;28;20464;-72
2021/03/31 09:59:27;;;;;;;21.70;18.90;;;28.20;59.60;;;;;;5047856;28;20506;-72
2021/03/31 10:01:55;;;;;;;32.77;19.53;;;29.00;55.90;;;;;;5054207;28;20554;-72
2021/03/31 10:04:22;;;;;;;30.33;20.30;;;29.30;53.50;;;;;;5054003;28;21023;-72
2021/03/31 10:07:13;;;;;;;25.70;19.13;;;28.90;51.60;;;;;;5053787;28;20490;-72
2021/03/31 10:09:40;;;;;;;27.20;18.90;;;29.50;51.10;;;;;;5054399;28;20693;-72
2021/03/31 10:12:09;;;;;;;25.20;19.13;;;29.70;48.40;;;;;;5058234;28;21078;-72
2021/03/31 10:14:43;;;;;;;23.40;19.10;;;28.80;48.10;;;;;;5051539;28;20841;-72
2021/03/31 10:17:11;;;;;;;19.93;17.30;;;29.70;47.70;;;;;;5057486;28;20497;-72
2021/03/31 10:19:37;;;;;;;20.10;18.00;;;29.70;46.20;;;;;;5056971;28;20467;-72
2021/03/31 10:22:06;;;;;;;19.23;17.40;;;30.00;44.60;;;;;;5053778;28;20463;-72
2021/03/31 10:24:38;;;;;;;19.13;17.53;;;29.60;44.00;;;;;;5056862;28;21005;-72
2021/03/31 10:27:06;;;;;;;20.13;18.37;;;29.80;44.00;;;;;;5048211;28;20519;-72
2021/03/31 10:29:33;;;;;;;20.50;18.57;;;29.50;44.00;;;;;;5051322;28;20500;-72
2021/03/31 10:32:01;;;;;;;21.27;18.70;;;29.50;44.60;;;;;;5047898;28;20464;-73
2021/03/31 10:34:38;;;;;;;24.23;18.30;;;28.90;44.70;;;;;;5060874;28;20501;-72
2021/03/31 10:37:10;;;;;;;20.13;18.20;;;28.10;45.80;;;;;;5050203;28;20927;-72
2021/03/31 10:51:11;;;;;;;24.17;18.97;;;27.70;46.60;;;;;;5036742;28;20463;-72
2021/03/31 10:53:41;;;;;;;20.07;18.30;;;27.40;47.30;;;;;;5056625;28;20509;-72
2021/03/31 10:56:11;;;;;;;25.03;18.50;;;28.40;47.50;;;;;;5051792;28;20834;-72
2021/03/31 10:58:41;;;;;;;20.90;18.80;;;29.60;47.10;;;;;;5051557;28;20985;-72
2021/03/31 11:01:08;;;;;;;21.33;19.10;;;29.60;47.40;;;;;;5055265;28;20460;-72
2021/03/31 11:03:34;;;;;;;19.17;17.30;;;29.50;47.30;;;;;;5052514;28;20465;-72
2021/03/31 11:06:01;;;;;;;30.40;17.50;;;29.20;47.30;;;;;;5054565;28;20489;-72
2021/03/31 11:08:27;;;;;;;20.77;18.00;;;29.40;47.20;;;;;;5053063;28;20945;-72
2021/03/31 11:10:54;;;;;;;19.60;17.47;;;29.60;46.80;;;;;;5050554;28;20534;-72
2021/03/31 11:13:21;;;;;;;23.67;17.93;;;30.60;46.90;;;;;;5051107;28;20529;-72
2021/03/31 11:15:47;;;;;;;20.83;17.60;;;30.90;45.80;;;;;;5056246;28;20490;-72
2021/03/31 11:18:19;;;;;;;25.97;17.33;;;31.00;46.00;;;;;;5052254;28;20861;-72
2021/03/31 11:21:03;;;;;;;18.70;17.03;;;31.10;45.40;;;;;;5048171;28;20463;-72
2021/03/31 11:26:14;;;;;;;21.13;18.47;;;32.20;44.10;;;;;;5053792;28;20481;-72
2021/03/31 11:28:42;;;;;;;21.17;17.30;;;33.00;43.50;;;;;;5050353;28;20468;-72
2021/03/31 11:31:09;;;;;;;26.73;17.97;;;33.30;43.50;;;;;;5048441;28;20892;-72
2021/03/31 11:33:37;;;;;;;29.40;18.30;;;33.10;42.10;;;;;;5059099;28;20468;-72
2021/03/31 11:36:04;;;;;;;16.60;15.17;;;32.60;42.50;;;;;;5048272;28;20456;-72
2021/03/31 11:38:31;;;;;;;26.70;18.30;;;32.70;41.30;;;;;;5043870;28;20490;-72
2021/03/31 11:40:57;;;;;;;22.47;18.07;;;32.90;42.40;;;;;;5052862;28;20538;-72
2021/03/31 11:43:23;;;;;;;23.97;16.90;;;32.40;40.40;;;;;;5052731;28;20455;-72
2021/03/31 11:45:51;;;;;;;26.03;17.50;;;33.10;41.10;;;;;;5055725;28;20478;-72
2021/03/31 11:48:18;;;;;;;24.03;16.50;;;33.60;40.20;;;;;;5054908;28;20451;-72
2021/03/31 11:50:44;;;;;;;19.20;16.37;;;33.10;39.50;;;;;;5048508;28;20871;-72
2021/03/31 11:53:13;;;;;;;23.63;17.50;;;33.50;39.70;;;;;;5043398;28;20524;-73
2021/03/31 11:55:39;;;;;;;29.00;17.53;;;33.70;40.10;;;;;;5047196;28;20454;-72
2021/03/31 11:58:06;;;;;;;29.63;16.80;;;33.60;38.30;;;;;;5046815;28;20499;-72
2021/03/31 12:00:36;;;;;;;29.53;16.83;;;33.50;38.70;;;;;;5053545;28;20490;-72
2021/03/31 12:03:03;;;;;;;17.00;15.47;;;33.20;38.20;;;;;;5055672;28;20468;-72
2021/03/31 12:05:30;;;;;;;19.03;15.60;;;33.00;38.20;;;;;;5055422;28;20929;-72
2021/03/31 12:07:56;;;;;;;18.23;15.87;;;33.10;37.20;;;;;;5056862;28;20468;-72
2021/03/31 12:10:22;;;;;;;17.17;15.80;;;32.90;37.10;;;;;;5049550;28;20460;-72
2021/03/31 12:12:50;;;;;;;18.87;15.30;;;33.20;37.20;;;;;;5052471;28;20486;-72
2021/03/31 12:15:16;;;;;;;16.97;15.17;;;33.10;36.40;;;;;;5049741;28;20446;-72
2021/03/31 12:17:43;;;;;;;16.93;15.47;;;32.90;37.00;;;;;;5053951;28;20893;-72
2021/03/31 12:20:14;;;;;;;17.07;15.77;;;33.30;35.90;;;;;;5055070;28;20554;-72
2021/03/31 12:22:42;;;;;;;15.70;14.50;;;33.40;36.20;;;;;;5054036;28;20942;-72
2021/03/31 12:25:11;;;;;;;14.90;13.80;;;33.50;34.80;;;;;;5057500;28;20519;-73
2021/03/31 12:27:40;;;;;;;15.93;14.43;;;33.70;34.90;;;;;;5059241;28;20963;-72
2021/03/31 12:30:08;;;;;;;16.67;15.70;;;33.70;35.60;;;;;;5053189;28;20473;-72
2021/03/31 12:32:35;;;;;;;17.30;15.80;;;34.20;34.80;;;;;;5051297;28;20558;-72
2021/03/31 12:35:03;;;;;;;16.10;14.97;;;34.70;34.70;;;;;;5059110;28;20464;-71
2021/03/31 12:37:30;;;;;;;16.50;15.57;;;33.90;35.30;;;;;;5060428;28;20483;-72
2021/03/31 12:39:58;;;;;;;15.07;14.23;;;34.00;34.90;;;;;;5059934;28;20464;-72
2021/03/31 12:42:25;;;;;;;18.73;16.83;;;33.40;36.10;;;;;;5058605;28;20986;-72
2021/03/31 12:44:51;;;;;;;20.07;15.40;;;33.20;36.30;;;;;;5062090;28;20502;-72
2021/03/31 12:47:19;;;;;;;16.37;15.07;;;33.50;37.70;;;;;;5057955;28;20463;-72
2021/03/31 12:49:47;;;;;;;16.47;15.27;;;33.60;37.90;;;;;;5054611;28;20464;-70
2021/03/31 12:52:15;;;;;;;16.90;15.57;;;33.60;36.50;;;;;;5057642;28;20477;-70
2021/03/31 12:54:49;;;;;;;16.50;15.40;;;33.40;36.30;;;;;;5053282;28;20542;-70
2021/03/31 12:57:16;;;;;;;18.50;17.10;;;33.50;36.40;;;;;;5055081;28;20970;-71